Las Rusias, Texas
Current Conditions -  °F | °C
As of 7:52 AM on Monday 20 Oct 2014 (Local Time) from KHRL Reporting Station
Clear Clear  
Wind Chill: 74°   Ceiling: Unl
Heat Index: 74°   Visibility: 10mi
Dew Point: 69°   Wind: 6mph
Humidity: 85%   Direction: 10°N
Pressure: 29.93"   Gusts: NA
Location:  26.1784°N, 97.6678°W
Report Text: KHRL 201252Z 01005KT 10SM CLR 23/21 A2993 RMK AO2 SLP134 T02330206
Loading
Personal Weather Stations






























Interactive Weather Map
Tropical Storm Tracking
New forecast layout! Learn more

10-Day Weather Forecast

Advertisements
Track Severe Weather on mobile